sensor_id;sensor_type;location;lat;lon;timestamp;temperature;humidity
28177;DHT22;15461;41.652;9.378;2024-03-17T00:01:46;9.60;99.90
28177;DHT22;15461;41.652;9.378;2024-03-17T00:04:12;9.60;99.90
28177;DHT22;15461;41.652;9.378;2024-03-17T00:06:37;9.50;99.90
28177;DHT22;15461;41.652;9.378;2024-03-17T00:09:03;9.50;99.90
28177;DHT22;15461;41.652;9.378;2024-03-17T00:11:35;9.50;99.90
28177;DHT22;15461;41.652;9.378;2024-03-17T00:14:02;9.50;99.90
28177;DHT22;15461;41.652;9.378;2024-03-17T00:16:28;9.40;99.90
28177;DHT22;15461;41.652;9.378;2024-03-17T00:18:54;9.40;99.90
28177;DHT22;15461;41.652;9.378;2024-03-17T00:21:21;9.40;99.90
28177;DHT22;15461;41.652;9.378;2024-03-17T00:23:48;9.50;99.90
28177;DHT22;15461;41.652;9.378;2024-03-17T00:26:15;9.50;99.90
28177;DHT22;15461;41.652;9.378;2024-03-17T00:28:41;9.60;99.90
28177;DHT22;15461;41.652;9.378;2024-03-17T00:31:07;9.70;99.90
28177;DHT22;15461;41.652;9.378;2024-03-17T00:33:35;9.80;99.90
28177;DHT22;15461;41.652;9.378;2024-03-17T00:36:01;9.80;99.90
28177;DHT22;15461;41.652;9.378;2024-03-17T00:38:27;10.00;99.90
28177;DHT22;15461;41.652;9.378;2024-03-17T00:40:53;10.00;99.90
28177;DHT22;15461;41.652;9.378;2024-03-17T00:43:19;10.10;99.90
28177;DHT22;15461;41.652;9.378;2024-03-17T00:45:51;10.20;99.90
28177;DHT22;15461;41.652;9.378;2024-03-17T00:48:17;10.20;99.90
28177;DHT22;15461;41.652;9.378;2024-03-17T00:50:43;10.20;99.90
28177;DHT22;15461;41.652;9.378;2024-03-17T00:53:13;10.30;99.90
28177;DHT22;15461;41.652;9.378;2024-03-17T00:55:39;10.30;99.90
28177;DHT22;15461;41.652;9.378;2024-03-17T00:58:05;10.30;99.90
28177;DHT22;15461;41.652;9.378;2024-03-17T01:00:31;10.20;99.90
28177;DHT22;15461;41.652;9.378;2024-03-17T01:03:00;10.30;99.90
28177;DHT22;15461;41.652;9.378;2024-03-17T01:05:25;10.40;99.90
28177;DHT22;15461;41.652;9.378;2024-03-17T01:07:51;10.40;99.90
28177;DHT22;15461;41.652;9.378;2024-03-17T01:10:17;10.40;99.90
28177;DHT22;15461;41.652;9.378;2024-03-17T01:12:43;10.40;99.90
28177;DHT22;15461;41.652;9.378;2024-03-17T01:15:09;10.50;99.90
28177;DHT22;15461;41.652;9.378;2024-03-17T01:17:36;10.50;99.90
28177;DHT22;15461;41.652;9.378;2024-03-17T01:20:01;10.50;99.90
28177;DHT22;15461;41.652;9.378;2024-03-17T01:22:28;10.60;99.90
28177;DHT22;15461;41.652;9.378;2024-03-17T01:24:54;10.70;99.90
28177;DHT22;15461;41.652;9.378;2024-03-17T01:27:20;10.70;99.90
28177;DHT22;15461;41.652;9.378;2024-03-17T01:29:46;10.70;99.90
28177;DHT22;15461;41.652;9.378;2024-03-17T01:32:12;10.80;99.90
28177;DHT22;15461;41.652;9.378;2024-03-17T01:34:38;10.80;99.90
28177;DHT22;15461;41.652;9.378;2024-03-17T01:37:04;10.80;99.90
28177;DHT22;15461;41.652;9.378;2024-03-17T01:39:30;10.80;99.90
28177;DHT22;15461;41.652;9.378;2024-03-17T01:41:58;10.80;99.90
28177;DHT22;15461;41.652;9.378;2024-03-17T01:44:26;10.90;99.90
28177;DHT22;15461;41.652;9.378;2024-03-17T01:46:52;10.90;99.90
28177;DHT22;15461;41.652;9.378;2024-03-17T01:49:20;10.90;99.90
28177;DHT22;15461;41.652;9.378;2024-03-17T01:51:47;11.00;99.90
28177;DHT22;15461;41.652;9.378;2024-03-17T01:54:14;11.00;99.90
28177;DHT22;15461;41.652;9.378;2024-03-17T01:56:40;11.00;99.90
28177;DHT22;15461;41.652;9.378;2024-03-17T01:59:08;11.10;99.90
28177;DHT22;15461;41.652;9.378;2024-03-17T02:01:35;11.10;99.90
28177;DHT22;15461;41.652;9.378;2024-03-17T02:04:01;11.10;99.90
28177;DHT22;15461;41.652;9.378;2024-03-17T02:06:27;11.10;99.90
28177;DHT22;15461;41.652;9.378;2024-03-17T02:08:54;11.10;99.90
28177;DHT22;15461;41.652;9.378;2024-03-17T02:11:31;11.10;99.90
28177;DHT22;15461;41.652;9.378;2024-03-17T02:13:58;11.10;99.90
28177;DHT22;15461;41.652;9.378;2024-03-17T02:16:25;11.10;99.90
28177;DHT22;15461;41.652;9.378;2024-03-17T02:18:57;11.00;99.90
28177;DHT22;15461;41.652;9.378;2024-03-17T02:21:24;11.00;99.90
28177;DHT22;15461;41.652;9.378;2024-03-17T02:23:54;10.90;99.90
28177;DHT22;15461;41.652;9.378;2024-03-17T02:26:20;10.90;99.90
28177;DHT22;15461;41.652;9.378;2024-03-17T02:28:47;10.90;99.90
28177;DHT22;15461;41.652;9.378;2024-03-17T02:31:14;10.90;99.90
28177;DHT22;15461;41.652;9.378;2024-03-17T02:33:41;10.90;99.90
28177;DHT22;15461;41.652;9.378;2024-03-17T02:36:07;10.80;99.90
28177;DHT22;15461;41.652;9.378;2024-03-17T02:38:35;10.90;99.90
28177;DHT22;15461;41.652;9.378;2024-03-17T02:41:20;10.90;99.90
28177;DHT22;15461;41.652;9.378;2024-03-17T02:43:46;11.00;99.90
28177;DHT22;15461;41.652;9.378;2024-03-17T02:46:13;11.00;99.90
28177;DHT22;15461;41.652;9.378;2024-03-17T02:48:40;11.00;99.90
28177;DHT22;15461;41.652;9.378;2024-03-17T02:51:16;11.10;99.90
28177;DHT22;15461;41.652;9.378;2024-03-17T02:53:44;11.10;99.90
28177;DHT22;15461;41.652;9.378;2024-03-17T02:56:13;11.10;99.90
28177;DHT22;15461;41.652;9.378;2024-03-17T02:58:42;11.10;99.90
28177;DHT22;15461;41.652;9.378;2024-03-17T03:01:09;11.20;99.90
28177;DHT22;15461;41.652;9.378;2024-03-17T03:03:37;11.20;99.90
28177;DHT22;15461;41.652;9.378;2024-03-17T03:06:04;11.20;99.90
28177;DHT22;15461;41.652;9.378;2024-03-17T03:08:35;11.20;99.90
28177;DHT22;15461;41.652;9.378;2024-03-17T03:11:03;11.20;99.90
28177;DHT22;15461;41.652;9.378;2024-03-17T03:13:29;11.20;99.90
28177;DHT22;15461;41.652;9.378;2024-03-17T03:15:55;11.20;99.90
28177;DHT22;15461;41.652;9.378;2024-03-17T03:18:21;11.20;99.90
28177;DHT22;15461;41.652;9.378;2024-03-17T03:20:55;11.10;99.90
28177;DHT22;15461;41.652;9.378;2024-03-17T03:23:21;11.10;99.90
28177;DHT22;15461;41.652;9.378;2024-03-17T03:25:47;11.10;99.90
28177;DHT22;15461;41.652;9.378;2024-03-17T03:28:13;11.10;99.90
28177;DHT22;15461;41.652;9.378;2024-03-17T03:30:39;11.10;99.90
28177;DHT22;15461;41.652;9.378;2024-03-17T03:33:05;11.10;99.90
28177;DHT22;15461;41.652;9.378;2024-03-17T03:35:31;11.10;99.90
28177;DHT22;15461;41.652;9.378;2024-03-17T03:37:58;11.10;99.90
28177;DHT22;15461;41.652;9.378;2024-03-17T03:40:23;11.10;99.90
28177;DHT22;15461;41.652;9.378;2024-03-17T03:42:52;11.10;99.90
28177;DHT22;15461;41.652;9.378;2024-03-17T03:45:19;11.20;99.90
28177;DHT22;15461;41.652;9.378;2024-03-17T03:47:46;11.20;99.90
28177;DHT22;15461;41.652;9.378;2024-03-17T03:50:14;11.20;99.90
28177;DHT22;15461;41.652;9.378;2024-03-17T03:52:40;11.20;99.90
28177;DHT22;15461;41.652;9.378;2024-03-17T03:55:09;11.20;99.90
28177;DHT22;15461;41.652;9.378;2024-03-17T03:57:41;11.20;99.90
28177;DHT22;15461;41.652;9.378;2024-03-17T04:00:08;11.20;99.90
28177;DHT22;15461;41.652;9.378;2024-03-17T04:02:41;11.20;99.90
28177;DHT22;15461;41.652;9.378;2024-03-17T04:05:08;11.20;99.90
28177;DHT22;15461;41.652;9.378;2024-03-17T04:07:34;11.20;99.90
28177;DHT22;15461;41.652;9.378;2024-03-17T04:10:01;11.20;99.90
28177;DHT22;15461;41.652;9.378;2024-03-17T04:12:27;11.20;99.90
28177;DHT22;15461;41.652;9.378;2024-03-17T04:14:53;11.20;99.90
28177;DHT22;15461;41.652;9.378;2024-03-17T04:17:20;11.20;99.90
28177;DHT22;15461;41.652;9.378;2024-03-17T04:19:47;11.10;99.90
28177;DHT22;15461;41.652;9.378;2024-03-17T04:22:15;11.20;99.90
28177;DHT22;15461;41.652;9.378;2024-03-17T04:24:46;11.10;99.90
28177;DHT22;15461;41.652;9.378;2024-03-17T04:27:12;11.10;99.90
28177;DHT22;15461;41.652;9.378;2024-03-17T04:29:39;11.10;99.90
28177;DHT22;15461;41.652;9.378;2024-03-17T04:32:06;11.10;99.90
28177;DHT22;15461;41.652;9.378;2024-03-17T04:34:32;11.10;99.90
28177;DHT22;15461;41.652;9.378;2024-03-17T04:36:58;11.10;99.90
28177;DHT22;15461;41.652;9.378;2024-03-17T04:39:25;11.10;99.90
28177;DHT22;15461;41.652;9.378;2024-03-17T04:41:51;11.10;99.90
28177;DHT22;15461;41.652;9.378;2024-03-17T04:44:17;11.10;99.90
28177;DHT22;15461;41.652;9.378;2024-03-17T04:46:43;11.10;99.90
28177;DHT22;15461;41.652;9.378;2024-03-17T04:49:09;11.10;99.90
28177;DHT22;15461;41.652;9.378;2024-03-17T04:51:35;11.10;99.90
28177;DHT22;15461;41.652;9.378;2024-03-17T04:54:01;11.00;99.90
28177;DHT22;15461;41.652;9.378;2024-03-17T04:56:31;11.10;99.90
28177;DHT22;15461;41.652;9.378;2024-03-17T04:58:57;11.00;99.90
28177;DHT22;15461;41.652;9.378;2024-03-17T05:01:23;11.00;99.90
28177;DHT22;15461;41.652;9.378;2024-03-17T05:03:53;11.00;99.90
28177;DHT22;15461;41.652;9.378;2024-03-17T05:06:19;11.00;99.90
28177;DHT22;15461;41.652;9.378;2024-03-17T05:08:44;11.00;99.90
28177;DHT22;15461;41.652;9.378;2024-03-17T05:11:11;10.90;99.90
28177;DHT22;15461;41.652;9.378;2024-03-17T05:13:37;10.90;99.90
28177;DHT22;15461;41.652;9.378;2024-03-17T05:16:06;10.90;99.90
28177;DHT22;15461;41.652;9.378;2024-03-17T05:18:32;10.80;99.90
28177;DHT22;15461;41.652;9.378;2024-03-17T05:20:59;10.80;99.90
28177;DHT22;15461;41.652;9.378;2024-03-17T05:23:36;10.80;99.90
28177;DHT22;15461;41.652;9.378;2024-03-17T05:26:03;10.80;99.90
28177;DHT22;15461;41.652;9.378;2024-03-17T05:28:30;10.70;99.90
28177;DHT22;15461;41.652;9.378;2024-03-17T05:30:56;10.70;99.90
28177;DHT22;15461;41.652;9.378;2024-03-17T05:33:23;10.60;99.90
28177;DHT22;15461;41.652;9.378;2024-03-17T05:35:57;10.50;99.90
28177;DHT22;15461;41.652;9.378;2024-03-17T05:38:25;10.50;99.90
28177;DHT22;15461;41.652;9.378;2024-03-17T05:43:31;10.40;99.90
28177;DHT22;15461;41.652;9.378;2024-03-17T05:45:59;10.40;99.90
28177;DHT22;15461;41.652;9.378;2024-03-17T05:48:26;10.30;99.90
28177;DHT22;15461;41.652;9.378;2024-03-17T05:50:53;10.30;99.90
28177;DHT22;15461;41.652;9.378;2024-03-17T05:53:20;10.20;99.90
28177;DHT22;15461;41.652;9.378;2024-03-17T05:55:46;10.20;99.90
28177;DHT22;15461;41.652;9.378;2024-03-17T05:58:12;10.10;99.90
28177;DHT22;15461;41.652;9.378;2024-03-17T06:00:39;10.10;99.90
28177;DHT22;15461;41.652;9.378;2024-03-17T06:03:06;10.00;99.90
28177;DHT22;15461;41.652;9.378;2024-03-17T06:05:32;9.90;99.90
28177;DHT22;15461;41.652;9.378;2024-03-17T06:08:00;9.90;99.90
28177;DHT22;15461;41.652;9.378;2024-03-17T06:10:28;9.80;99.90
28177;DHT22;15461;41.652;9.378;2024-03-17T06:12:54;9.80;99.90
28177;DHT22;15461;41.652;9.378;2024-03-17T06:15:20;9.80;99.90
28177;DHT22;15461;41.652;9.378;2024-03-17T06:17:46;9.80;99.90
28177;DHT22;15461;41.652;9.378;2024-03-17T06:20:12;9.80;99.90
28177;DHT22;15461;41.652;9.378;2024-03-17T06:22:39;9.80;99.90
28177;DHT22;15461;41.652;9.378;2024-03-17T06:25:06;9.80;99.90
28177;DHT22;15461;41.652;9.378;2024-03-17T06:27:32;9.90;99.90
28177;DHT22;15461;41.652;9.378;2024-03-17T06:30:00;9.90;99.90
28177;DHT22;15461;41.652;9.378;2024-03-17T06:32:30;10.00;99.90
28177;DHT22;15461;41.652;9.378;2024-03-17T06:34:57;10.00;99.90
28177;DHT22;15461;41.652;9.378;2024-03-17T06:37:24;10.20;99.90
28177;DHT22;15461;41.652;9.378;2024-03-17T06:39:50;10.30;99.90
28177;DHT22;15461;41.652;9.378;2024-03-17T06:42:16;10.40;99.90
28177;DHT22;15461;41.652;9.378;2024-03-17T06:44:42;10.50;99.90
28177;DHT22;15461;41.652;9.378;2024-03-17T06:47:08;10.70;99.90
28177;DHT22;15461;41.652;9.378;2024-03-17T06:49:33;10.80;99.90
28177;DHT22;15461;41.652;9.378;2024-03-17T06:51:59;10.90;99.90
28177;DHT22;15461;41.652;9.378;2024-03-17T06:54:25;11.00;99.90
28177;DHT22;15461;41.652;9.378;2024-03-17T06:56:51;11.10;99.90
28177;DHT22;15461;41.652;9.378;2024-03-17T06:59:17;11.20;99.90
28177;DHT22;15461;41.652;9.378;2024-03-17T07:01:43;11.40;99.90
28177;DHT22;15461;41.652;9.378;2024-03-17T07:04:12;11.60;99.90
28177;DHT22;15461;41.652;9.378;2024-03-17T07:06:38;11.80;99.90
28177;DHT22;15461;41.652;9.378;2024-03-17T07:09:04;12.00;99.90
28177;DHT22;15461;41.652;9.378;2024-03-17T07:11:31;12.20;99.90
28177;DHT22;15461;41.652;9.378;2024-03-17T07:13:57;12.40;99.90
28177;DHT22;15461;41.652;9.378;2024-03-17T07:16:23;12.60;99.90
28177;DHT22;15461;41.652;9.378;2024-03-17T07:18:51;12.70;99.90
28177;DHT22;15461;41.652;9.378;2024-03-17T07:21:18;12.80;99.90
28177;DHT22;15461;41.652;9.378;2024-03-17T07:23:44;12.90;99.90
28177;DHT22;15461;41.652;9.378;2024-03-17T07:26:10;13.20;99.90
28177;DHT22;15461;41.652;9.378;2024-03-17T07:28:36;13.40;99.90
28177;DHT22;15461;41.652;9.378;2024-03-17T07:31:08;13.60;99.90
28177;DHT22;15461;41.652;9.378;2024-03-17T07:33:34;13.80;99.90
28177;DHT22;15461;41.652;9.378;2024-03-17T07:36:00;14.10;99.90
28177;DHT22;15461;41.652;9.378;2024-03-17T07:38:27;14.30;99.90
28177;DHT22;15461;41.652;9.378;2024-03-17T07:43:26;14.60;99.90
28177;DHT22;15461;41.652;9.378;2024-03-17T07:46:03;14.80;99.90
28177;DHT22;15461;41.652;9.378;2024-03-17T07:48:32;15.00;99.90
28177;DHT22;15461;41.652;9.378;2024-03-17T07:51:09;15.20;99.90
28177;DHT22;15461;41.652;9.378;2024-03-17T07:53:42;15.30;99.90
28177;DHT22;15461;41.652;9.378;2024-03-17T07:56:12;15.30;99.90
28177;DHT22;15461;41.652;9.378;2024-03-17T07:58:41;15.30;99.90
28177;DHT22;15461;41.652;9.378;2024-03-17T08:01:13;15.40;99.90
28177;DHT22;15461;41.652;9.378;2024-03-17T08:03:41;15.60;99.90
28177;DHT22;15461;41.652;9.378;2024-03-17T08:06:07;15.70;99.90
28177;DHT22;15461;41.652;9.378;2024-03-17T08:08:34;15.80;99.90
28177;DHT22;15461;41.652;9.378;2024-03-17T08:11:00;15.90;99.90
28177;DHT22;15461;41.652;9.378;2024-03-17T08:13:30;16.00;99.90
28177;DHT22;15461;41.652;9.378;2024-03-17T08:16:02;16.00;99.90
28177;DHT22;15461;41.652;9.378;2024-03-17T08:18:28;16.00;99.90
28177;DHT22;15461;41.652;9.378;2024-03-17T08:20:54;16.00;99.90
28177;DHT22;15461;41.652;9.378;2024-03-17T08:23:22;16.10;99.90
28177;DHT22;15461;41.652;9.378;2024-03-17T08:25:59;16.10;99.90
28177;DHT22;15461;41.652;9.378;2024-03-17T08:28:25;16.20;99.90
28177;DHT22;15461;41.652;9.378;2024-03-17T08:33:19;16.40;99.90
28177;DHT22;15461;41.652;9.378;2024-03-17T08:35:55;16.40;99.90
28177;DHT22;15461;41.652;9.378;2024-03-17T08:38:21;16.50;99.90
28177;DHT22;15461;41.652;9.378;2024-03-17T08:40:49;16.60;99.90
28177;DHT22;15461;41.652;9.378;2024-03-17T08:43:15;16.70;99.90
28177;DHT22;15461;41.652;9.378;2024-03-17T08:45:41;16.90;99.90
28177;DHT22;15461;41.652;9.378;2024-03-17T08:48:07;17.00;99.90
28177;DHT22;15461;41.652;9.378;2024-03-17T08:50:32;17.10;99.90
28177;DHT22;15461;41.652;9.378;2024-03-17T08:53:01;17.10;99.90
28177;DHT22;15461;41.652;9.378;2024-03-17T08:55:27;17.10;99.90
28177;DHT22;15461;41.652;9.378;2024-03-17T08:57:53;17.20;99.90
28177;DHT22;15461;41.652;9.378;2024-03-17T09:00:18;17.20;99.90
28177;DHT22;15461;41.652;9.378;2024-03-17T09:02:44;17.30;99.90
28177;DHT22;15461;41.652;9.378;2024-03-17T09:05:10;17.40;99.90
28177;DHT22;15461;41.652;9.378;2024-03-17T09:07:38;17.50;99.90
28177;DHT22;15461;41.652;9.378;2024-03-17T09:10:05;17.60;99.90
28177;DHT22;15461;41.652;9.378;2024-03-17T09:12:31;17.80;99.90
28177;DHT22;15461;41.652;9.378;2024-03-17T09:14:57;18.00;99.90
28177;DHT22;15461;41.652;9.378;2024-03-17T09:17:23;18.20;99.90
28177;DHT22;15461;41.652;9.378;2024-03-17T09:19:49;18.20;99.90
28177;DHT22;15461;41.652;9.378;2024-03-17T09:22:15;18.20;99.90
28177;DHT22;15461;41.652;9.378;2024-03-17T09:24:40;18.40;99.90
28177;DHT22;15461;41.652;9.378;2024-03-17T09:27:06;18.40;99.90
28177;DHT22;15461;41.652;9.378;2024-03-17T09:29:32;18.40;99.90
28177;DHT22;15461;41.652;9.378;2024-03-17T09:32:00;18.50;99.90
28177;DHT22;15461;41.652;9.378;2024-03-17T09:34:26;18.70;99.90
28177;DHT22;15461;41.652;9.378;2024-03-17T09:36:52;18.70;99.90
28177;DHT22;15461;41.652;9.378;2024-03-17T09:39:18;18.90;99.90
28177;DHT22;15461;41.652;9.378;2024-03-17T09:41:46;18.90;99.90
28177;DHT22;15461;41.652;9.378;2024-03-17T09:44:12;18.30;99.90
28177;DHT22;15461;41.652;9.378;2024-03-17T09:46:41;17.90;99.90
28177;DHT22;15461;41.652;9.378;2024-03-17T09:49:15;17.70;99.90
28177;DHT22;15461;41.652;9.378;2024-03-17T09:51:44;17.60;99.90
28177;DHT22;15461;41.652;9.378;2024-03-17T09:54:18;17.70;99.90
28177;DHT22;15461;41.652;9.378;2024-03-17T09:56:47;18.00;99.90
28177;DHT22;15461;41.652;9.378;2024-03-17T09:59:12;18.20;99.90
28177;DHT22;15461;41.652;9.378;2024-03-17T10:01:38;18.50;99.90
28177;DHT22;15461;41.652;9.378;2024-03-17T10:04:04;18.60;99.90
28177;DHT22;15461;41.652;9.378;2024-03-17T10:06:31;18.70;99.90
28177;DHT22;15461;41.652;9.378;2024-03-17T10:09:00;18.70;99.90
28177;DHT22;15461;41.652;9.378;2024-03-17T10:11:41;18.30;99.90
28177;DHT22;15461;41.652;9.378;2024-03-17T10:14:08;18.00;99.90
28177;DHT22;15461;41.652;9.378;2024-03-17T10:16:38;18.00;99.90
28177;DHT22;15461;41.652;9.378;2024-03-17T10:19:15;18.20;99.90
28177;DHT22;15461;41.652;9.378;2024-03-17T10:21:46;18.30;99.90
28177;DHT22;15461;41.652;9.378;2024-03-17T10:24:24;18.30;99.90
28177;DHT22;15461;41.652;9.378;2024-03-17T10:26:55;18.20;99.90
28177;DHT22;15461;41.652;9.378;2024-03-17T10:29:32;17.90;99.90
28177;DHT22;15461;41.652;9.378;2024-03-17T10:34:38;17.50;99.90
28177;DHT22;15461;41.652;9.378;2024-03-17T10:39:41;17.30;99.90
28177;DHT22;15461;41.652;9.378;2024-03-17T10:42:08;17.40;99.90
28177;DHT22;15461;41.652;9.378;2024-03-17T10:44:35;17.60;99.90
28177;DHT22;15461;41.652;9.378;2024-03-17T10:47:02;17.80;99.90
28177;DHT22;15461;41.652;9.378;2024-03-17T10:49:33;18.00;99.90
28177;DHT22;15461;41.652;9.378;2024-03-17T10:52:07;18.10;99.90
28177;DHT22;15461;41.652;9.378;2024-03-17T10:54:34;18.40;99.90
28177;DHT22;15461;41.652;9.378;2024-03-17T10:59:48;18.50;99.90
28177;DHT22;15461;41.652;9.378;2024-03-17T11:02:26;18.60;99.90
28177;DHT22;15461;41.652;9.378;2024-03-17T11:04:59;18.60;99.90
28177;DHT22;15461;41.652;9.378;2024-03-17T11:07:26;18.50;99.90
28177;DHT22;15461;41.652;9.378;2024-03-17T11:09:55;18.50;99.90
28177;DHT22;15461;41.652;9.378;2024-03-17T11:20:38;18.20;99.90
28177;DHT22;15461;41.652;9.378;2024-03-17T11:23:08;18.40;99.90
28177;DHT22;15461;41.652;9.378;2024-03-17T11:25:40;18.60;99.90
28177;DHT22;15461;41.652;9.378;2024-03-17T11:28:09;18.80;99.90
28177;DHT22;15461;41.652;9.378;2024-03-17T11:41:37;19.40;99.90
28177;DHT22;15461;41.652;9.378;2024-03-17T11:49:22;19.70;99.90
28177;DHT22;15461;41.652;9.378;2024-03-17T11:51:49;19.70;99.90
28177;DHT22;15461;41.652;9.378;2024-03-17T11:54:17;19.80;99.90
28177;DHT22;15461;41.652;9.378;2024-03-17T11:56:55;19.90;99.90
28177;DHT22;15461;41.652;9.378;2024-03-17T11:59:22;20.00;99.90
28177;DHT22;15461;41.652;9.378;2024-03-17T12:01:49;20.00;99.90
28177;DHT22;15461;41.652;9.378;2024-03-17T12:04:19;20.10;99.90
28177;DHT22;15461;41.652;9.378;2024-03-17T12:06:55;20.20;99.90
28177;DHT22;15461;41.652;9.378;2024-03-17T12:09:23;20.30;99.90
28177;DHT22;15461;41.652;9.378;2024-03-17T12:12:12;20.30;99.90
28177;DHT22;15461;41.652;9.378;2024-03-17T12:14:39;20.30;99.90
28177;DHT22;15461;41.652;9.378;2024-03-17T12:17:08;20.40;99.90
28177;DHT22;15461;41.652;9.378;2024-03-17T12:19:35;20.40;99.90
28177;DHT22;15461;41.652;9.378;2024-03-17T12:22:03;20.30;99.90
28177;DHT22;15461;41.652;9.378;2024-03-17T12:24:34;20.30;99.90
28177;DHT22;15461;41.652;9.378;2024-03-17T12:27:01;20.30;99.90
28177;DHT22;15461;41.652;9.378;2024-03-17T12:29:32;20.20;99.90
28177;DHT22;15461;41.652;9.378;2024-03-17T12:32:02;20.20;99.90
28177;DHT22;15461;41.652;9.378;2024-03-17T12:34:29;20.20;99.90
28177;DHT22;15461;41.652;9.378;2024-03-17T12:36:57;20.10;99.90
28177;DHT22;15461;41.652;9.378;2024-03-17T12:39:28;20.10;99.90
28177;DHT22;15461;41.652;9.378;2024-03-17T12:42:13;20.30;99.90
28177;DHT22;15461;41.652;9.378;2024-03-17T12:44:46;20.30;99.90
28177;DHT22;15461;41.652;9.378;2024-03-17T12:47:19;20.20;99.90
28177;DHT22;15461;41.652;9.378;2024-03-17T12:49:47;20.10;99.90
28177;DHT22;15461;41.652;9.378;2024-03-17T12:52:30;20.20;99.90
28177;DHT22;15461;41.652;9.378;2024-03-17T12:55:19;20.20;99.90
28177;DHT22;15461;41.652;9.378;2024-03-17T13:01:04;20.00;99.90
28177;DHT22;15461;41.652;9.378;2024-03-17T13:05:59;20.10;99.90
28177;DHT22;15461;41.652;9.378;2024-03-17T13:08:26;20.10;99.90
28177;DHT22;15461;41.652;9.378;2024-03-17T13:10:52;20.10;99.90
28177;DHT22;15461;41.652;9.378;2024-03-17T13:13:17;20.00;99.90
28177;DHT22;15461;41.652;9.378;2024-03-17T13:15:43;19.90;99.90
28177;DHT22;15461;41.652;9.378;2024-03-17T13:18:19;19.80;99.90
28177;DHT22;15461;41.652;9.378;2024-03-17T13:20:45;19.70;99.90
28177;DHT22;15461;41.652;9.378;2024-03-17T13:23:11;19.70;99.90
28177;DHT22;15461;41.652;9.378;2024-03-17T13:25:37;19.70;99.90
28177;DHT22;15461;41.652;9.378;2024-03-17T13:28:04;19.70;99.90
28177;DHT22;15461;41.652;9.378;2024-03-17T13:30:32;19.60;99.90
28177;DHT22;15461;41.652;9.378;2024-03-17T13:33:02;19.50;99.90
28177;DHT22;15461;41.652;9.378;2024-03-17T13:35:30;19.50;99.90
28177;DHT22;15461;41.652;9.378;2024-03-17T13:37:57;19.50;99.90
28177;DHT22;15461;41.652;9.378;2024-03-17T13:40:27;19.50;99.90
28177;DHT22;15461;41.652;9.378;2024-03-17T13:42:55;19.50;99.90
28177;DHT22;15461;41.652;9.378;2024-03-17T13:45:24;19.50;99.90
28177;DHT22;15461;41.652;9.378;2024-03-17T13:47:57;19.50;99.90
28177;DHT22;15461;41.652;9.378;2024-03-17T13:50:23;19.50;99.90
28177;DHT22;15461;41.652;9.378;2024-03-17T13:52:50;19.60;99.90
28177;DHT22;15461;41.652;9.378;2024-03-17T13:57:46;19.60;99.90
28177;DHT22;15461;41.652;9.378;2024-03-17T14:00:13;19.70;99.90
28177;DHT22;15461;41.652;9.378;2024-03-17T14:02:46;19.70;99.90
28177;DHT22;15461;41.652;9.378;2024-03-17T14:05:14;19.80;99.90
28177;DHT22;15461;41.652;9.378;2024-03-17T14:07:40;20.00;99.90
28177;DHT22;15461;41.652;9.378;2024-03-17T14:10:07;20.20;99.90
28177;DHT22;15461;41.652;9.378;2024-03-17T14:12:34;20.50;99.90
28177;DHT22;15461;41.652;9.378;2024-03-17T14:15:01;20.60;99.90
28177;DHT22;15461;41.652;9.378;2024-03-17T14:17:28;20.70;99.90
28177;DHT22;15461;41.652;9.378;2024-03-17T14:19:54;20.70;99.90
28177;DHT22;15461;41.652;9.378;2024-03-17T14:22:20;20.80;99.90
28177;DHT22;15461;41.652;9.378;2024-03-17T14:24:45;20.80;99.90
28177;DHT22;15461;41.652;9.378;2024-03-17T14:27:12;21.00;99.90
28177;DHT22;15461;41.652;9.378;2024-03-17T14:29:38;21.00;99.90
28177;DHT22;15461;41.652;9.378;2024-03-17T14:32:04;21.00;99.90
28177;DHT22;15461;41.652;9.378;2024-03-17T14:34:30;21.00;99.90
28177;DHT22;15461;41.652;9.378;2024-03-17T14:37:02;21.00;99.90
28177;DHT22;15461;41.652;9.378;2024-03-17T14:39:32;21.10;99.90
28177;DHT22;15461;41.652;9.378;2024-03-17T14:41:58;21.20;99.90
28177;DHT22;15461;41.652;9.378;2024-03-17T14:44:24;21.20;99.90
28177;DHT22;15461;41.652;9.378;2024-03-17T14:46:50;21.30;99.90
28177;DHT22;15461;41.652;9.378;2024-03-17T14:49:21;21.40;99.90
28177;DHT22;15461;41.652;9.378;2024-03-17T14:51:47;21.40;99.90
28177;DHT22;15461;41.652;9.378;2024-03-17T14:54:13;21.50;99.90
28177;DHT22;15461;41.652;9.378;2024-03-17T14:56:39;21.60;99.90
28177;DHT22;15461;41.652;9.378;2024-03-17T14:59:07;21.40;99.90
28177;DHT22;15461;41.652;9.378;2024-03-17T15:01:34;21.30;99.90
28177;DHT22;15461;41.652;9.378;2024-03-17T15:04:00;21.00;99.90
28177;DHT22;15461;41.652;9.378;2024-03-17T15:06:26;20.70;99.90
28177;DHT22;15461;41.652;9.378;2024-03-17T15:08:53;20.50;99.90
28177;DHT22;15461;41.652;9.378;2024-03-17T15:11:18;20.30;99.90
28177;DHT22;15461;41.652;9.378;2024-03-17T15:13:45;20.10;99.90
28177;DHT22;15461;41.652;9.378;2024-03-17T15:16:11;19.90;99.90
28177;DHT22;15461;41.652;9.378;2024-03-17T15:18:38;19.80;99.90
28177;DHT22;15461;41.652;9.378;2024-03-17T15:21:04;19.70;99.90
28177;DHT22;15461;41.652;9.378;2024-03-17T15:23:32;19.70;99.90
28177;DHT22;15461;41.652;9.378;2024-03-17T15:26:05;19.60;99.90
28177;DHT22;15461;41.652;9.378;2024-03-17T15:28:39;19.60;99.90
28177;DHT22;15461;41.652;9.378;2024-03-17T15:31:06;19.50;99.90
28177;DHT22;15461;41.652;9.378;2024-03-17T15:33:33;19.40;99.90
28177;DHT22;15461;41.652;9.378;2024-03-17T15:36:08;19.30;99.90
28177;DHT22;15461;41.652;9.378;2024-03-17T15:38:36;19.20;99.90
28177;DHT22;15461;41.652;9.378;2024-03-17T15:41:06;19.10;99.90
28177;DHT22;15461;41.652;9.378;2024-03-17T15:43:36;18.90;99.90
28177;DHT22;15461;41.652;9.378;2024-03-17T15:46:09;18.80;99.90
28177;DHT22;15461;41.652;9.378;2024-03-17T15:48:38;18.70;99.90
28177;DHT22;15461;41.652;9.378;2024-03-17T15:51:04;18.60;99.90
28177;DHT22;15461;41.652;9.378;2024-03-17T15:53:30;18.50;99.90
28177;DHT22;15461;41.652;9.378;2024-03-17T15:56:00;18.30;99.90
28177;DHT22;15461;41.652;9.378;2024-03-17T15:58:28;18.10;99.90
28177;DHT22;15461;41.652;9.378;2024-03-17T16:00:55;18.00;99.90
28177;DHT22;15461;41.652;9.378;2024-03-17T16:03:31;18.00;99.90
28177;DHT22;15461;41.652;9.378;2024-03-17T16:06:06;17.90;99.90
28177;DHT22;15461;41.652;9.378;2024-03-17T16:08:45;17.90;99.90
28177;DHT22;15461;41.652;9.378;2024-03-17T16:11:12;18.00;99.90
28177;DHT22;15461;41.652;9.378;2024-03-17T16:13:43;17.90;99.90
28177;DHT22;15461;41.652;9.378;2024-03-17T16:16:14;17.90;99.90
28177;DHT22;15461;41.652;9.378;2024-03-17T16:18:41;17.80;99.90
28177;DHT22;15461;41.652;9.378;2024-03-17T16:21:10;17.70;99.90
28177;DHT22;15461;41.652;9.378;2024-03-17T16:23:43;17.70;99.90
28177;DHT22;15461;41.652;9.378;2024-03-17T16:26:11;17.70;99.90